Time;durP1;ratioP1;P1;durP2;ratioP2;P2;SDS_P1;SDS_P2;PMS_P1;PMS_P2;Temp;Humidity;BMP_temperature;BMP_pressure;BME280_temperature;BME280_humidity;BME280_pressure;Samples;Min_cycle;Max_cycle;Signal;HPM_P1;HPM_P2
2022/10/24 00:01:28;;;;;;;8.57;3.53;;;;;;;24.45;49.23;100274.91;5092462;28;20024;-70
2022/10/24 00:03:54;;;;;;;12.73;3.10;;;;;;;23.59;51.69;100267.03;5091225;28;20055;-70
2022/10/24 00:06:19;;;;;;;5.63;2.90;;;;;;;25.11;47.22;100272.41;5090179;28;20559;-70
2022/10/24 00:08:45;;;;;;;8.85;2.75;;;;;;;24.95;47.83;100274.59;5089380;28;20031;-70
2022/10/24 00:11:22;;;;;;;10.07;3.25;;;;;;;24.97;47.18;100267.31;5089395;28;20024;-70
2022/10/24 00:13:49;;;;;;;7.90;3.15;;;;;;;24.76;48.17;100273.38;5091112;28;20048;-69
2022/10/24 00:16:14;;;;;;;10.38;3.60;;;;;;;24.90;47.65;100275.81;5090122;28;20057;-70
2022/10/24 00:18:40;;;;;;;8.75;2.90;;;;;;;24.29;48.62;100265.41;5089008;28;20032;-70
2022/10/24 00:21:06;;;;;;;13.27;3.58;;;;;;;24.92;48.68;100264.16;5091843;28;20032;-70
2022/10/24 00:23:32;;;;;;;12.38;5.53;;;;;;;24.12;50.84;100258.66;5088443;28;20487;-70
2022/10/24 00:26:00;;;;;;;6.40;2.78;;;;;;;24.10;50.39;100260.63;5089164;28;20032;-70
2022/10/24 00:28:27;;;;;;;4.95;2.83;;;;;;;23.80;52.84;100269.94;5089907;28;20024;-70
2022/10/24 00:30:52;;;;;;;11.63;2.55;;;;;;;23.46;51.74;100258.25;5089700;28;20035;-70
2022/10/24 00:33:18;;;;;;;12.05;3.25;;;;;;;23.47;51.88;100258.13;5090482;28;20490;-70
2022/10/24 00:35:43;;;;;;;8.20;2.88;;;;;;;23.78;52.22;100266.53;5084995;28;20385;-70
2022/10/24 00:38:09;;;;;;;9.63;3.20;;;;;;;23.00;53.67;100260.56;5083589;28;20024;-70
2022/10/24 00:40:34;;;;;;;10.73;2.97;;;;;;;23.69;51.54;100253.88;5091176;28;20063;-70
2022/10/24 00:43:00;;;;;;;10.50;2.55;;;;;;;23.80;51.20;100253.91;5090279;28;20073;-70
2022/10/24 00:45:46;;;;;;;11.93;3.00;;;;;;;22.62;55.40;100249.97;5089669;28;20016;-71
2022/10/24 00:48:18;;;;;;;8.05;2.47;;;;;;;23.55;51.85;100239.75;5088828;28;20655;-71
2022/10/24 00:50:45;;;;;;;5.37;2.57;;;;;;;23.01;52.65;100242.75;5089504;28;20459;-70
2022/10/24 00:53:11;;;;;;;10.57;2.90;;;;;;;23.58;52.26;100240.50;5088356;28;20036;-70
2022/10/24 00:55:37;;;;;;;7.30;2.42;;;;;;;23.67;50.88;100247.78;5090410;28;20046;-70
2022/10/24 00:58:04;;;;;;;8.75;2.83;;;;;;;23.46;51.86;100245.75;5091357;28;20059;-70
2022/10/24 01:00:32;;;;;;;13.80;2.50;;;;;;;23.23;52.03;100243.91;5088453;28;20032;-70
2022/10/24 01:02:58;;;;;;;5.53;1.80;;;;;;;23.67;50.77;100242.44;5089079;28;20035;-71
2022/10/24 01:05:30;;;;;;;8.35;3.05;;;;;;;24.19;49.18;100238.56;5089183;28;20030;-70
2022/10/24 01:08:12;;;;;;;9.48;2.03;;;;;;;23.75;50.33;100239.22;5089751;28;20027;-70
2022/10/24 01:10:57;;;;;;;13.38;4.07;;;;;;;23.83;50.27;100237.66;5088920;28;20039;-70
2022/10/24 01:14:07;;;;;;;6.90;1.90;;;;;;;23.45;50.13;100232.53;5088533;28;20035;-70
2022/10/24 01:16:33;;;;;;;7.00;2.22;;;;;;;23.37;49.57;100241.94;5082016;28;20499;-70
2022/10/24 01:19:19;;;;;;;5.82;2.38;;;;;;;23.10;50.31;100231.44;5089513;28;20060;-71
2022/10/24 01:21:56;;;;;;;8.32;2.20;;;;;;;23.52;50.66;100229.31;5085611;28;20458;-70
2022/10/24 01:24:33;;;;;;;7.90;1.70;;;;;;;23.49;49.76;100234.00;5070043;28;20166;-70
2022/10/24 01:27:35;;;;;;;9.57;1.85;;;;;;;23.58;48.60;100227.16;5071251;28;20035;-70
2022/10/24 01:30:07;;;;;;;8.32;1.80;;;;;;;24.24;46.97;100221.34;5070237;28;20043;-70
2022/10/24 01:33:09;;;;;;;8.02;1.80;;;;;;;23.94;48.34;100217.38;5094585;28;20122;-71
2022/10/24 01:35:43;;;;;;;10.60;1.60;;;;;;;23.69;47.51;100213.84;5071063;28;20048;-70
2022/10/24 01:38:22;;;;;;;3.38;1.55;;;;;;;24.21;47.03;100215.25;5092664;28;20039;-70
2022/10/24 01:41:16;;;;;;;5.18;1.75;;;;;;;23.86;48.09;100215.25;5091819;28;20501;-70
2022/10/24 01:43:54;;;;;;;7.97;1.95;;;;;;;23.86;47.58;100209.91;5074681;28;20017;-70
2022/10/24 01:46:27;;;;;;;5.55;1.95;;;;;;;23.79;47.19;100214.84;5085845;28;20115;-70
2022/10/24 01:49:07;;;;;;;2.35;1.10;;;;;;;23.47;47.71;100214.63;5093393;28;20036;-70
2022/10/24 01:51:34;;;;;;;6.10;1.85;;;;;;;23.84;46.97;100210.03;5102228;28;20110;-70
2022/10/24 01:54:03;;;;;;;6.40;1.23;;;;;;;23.99;46.46;100215.22;5092545;28;20063;-70
2022/10/24 01:56:28;;;;;;;5.95;1.50;;;;;;;23.91;46.43;100212.28;5094264;28;20395;-70
2022/10/24 01:59:04;;;;;;;7.05;1.48;;;;;;;24.54;44.77;100216.25;5091760;28;20047;-70
2022/10/24 02:01:30;;;;;;;7.25;1.63;;;;;;;23.52;46.67;100207.97;5091546;28;20440;-70
2022/10/24 02:04:02;;;;;;;4.40;1.58;;;;;;;23.46;46.62;100203.06;5092851;28;20028;-70
2022/10/24 02:06:33;;;;;;;3.85;1.60;;;;;;;23.50;46.92;100199.22;5092436;28;20047;-70
2022/10/24 02:09:05;;;;;;;4.43;1.30;;;;;;;23.26;46.55;100206.38;5092619;28;20028;-70
2022/10/24 02:11:33;;;;;;;3.70;1.52;;;;;;;23.60;46.12;100204.72;5094035;28;20035;-70
2022/10/24 02:14:06;;;;;;;8.90;2.05;;;;;;;23.41;47.15;100205.25;5092909;28;20024;-70
2022/10/24 02:16:33;;;;;;;9.15;2.08;;;;;;;23.47;45.77;100196.78;5093835;28;20041;-70
2022/10/24 02:18:59;;;;;;;8.55;2.70;;;;;;;23.09;46.96;100200.41;5087989;28;20489;-70
2022/10/24 02:21:30;;;;;;;9.38;1.75;;;;;;;22.42;47.99;100204.28;5091647;28;20123;-70
2022/10/24 02:24:16;;;;;;;7.57;1.60;;;;;;;23.09;46.38;100196.91;5071895;28;20029;-71
2022/10/24 02:26:55;;;;;;;7.25;1.58;;;;;;;23.36;46.15;100197.56;5099607;27;20024;-70
2022/10/24 02:29:31;;;;;;;11.05;2.30;;;;;;;23.28;45.89;100191.13;5091909;28;20081;-69
2022/10/24 02:31:58;;;;;;;3.78;1.33;;;;;;;23.54;45.11;100189.19;5093917;28;20050;-70
2022/10/24 02:34:29;;;;;;;8.45;2.33;;;;;;;23.33;45.39;100194.31;5093062;28;20028;-72
2022/10/24 02:36:56;;;;;;;4.93;1.50;;;;;;;23.13;46.26;100193.94;5094069;28;20502;-70
2022/10/24 02:39:24;;;;;;;4.20;1.20;;;;;;;22.96;46.31;100199.63;5091806;28;20035;-70
2022/10/24 02:41:53;;;;;;;6.13;1.50;;;;;;;22.94;46.10;100197.03;5099899;28;20099;-69
2022/10/24 02:44:20;;;;;;;5.85;1.60;;;;;;;22.82;46.78;100201.47;5093685;28;20023;-70
2022/10/24 02:46:46;;;;;;;7.10;1.35;;;;;;;22.29;47.44;100200.72;5091026;28;20024;-70
2022/10/24 02:49:12;;;;;;;4.80;1.65;;;;;;;22.34;47.54;100188.00;5091654;28;20040;-70
2022/10/24 02:51:40;;;;;;;6.88;1.38;;;;;;;22.46;46.86;100192.47;5091675;28;20034;-70
2022/10/24 02:54:05;;;;;;;10.82;1.40;;;;;;;22.59;46.92;100196.91;5092154;28;20031;-69
2022/10/24 02:56:31;;;;;;;5.10;1.38;;;;;;;22.73;46.11;100199.44;5091109;28;20036;-69
2022/10/24 02:58:56;;;;;;;6.50;1.25;;;;;;;22.72;46.63;100197.72;5089526;28;20051;-70
2022/10/24 03:01:22;;;;;;;10.55;1.77;;;;;;;22.33;47.12;100196.91;5092140;28;20023;-70
2022/10/24 03:03:47;;;;;;;8.60;1.30;;;;;;;23.62;44.30;100191.28;5089622;28;20024;-70
2022/10/24 03:06:13;;;;;;;4.45;1.00;;;;;;;22.55;45.83;100198.09;5094436;28;20039;-69
2022/10/24 03:08:38;;;;;;;6.43;1.30;;;;;;;23.08;45.32;100193.41;5091286;28;20411;-69
2022/10/24 03:11:05;;;;;;;6.57;1.20;;;;;;;22.20;47.25;100189.75;5090914;28;20020;-69
2022/10/24 03:13:30;;;;;;;4.72;1.13;;;;;;;22.33;46.66;100194.22;5092517;28;20035;-70
2022/10/24 03:15:56;;;;;;;8.77;1.52;;;;;;;22.10;46.74;100180.69;5089127;28;20031;-69
2022/10/24 03:18:21;;;;;;;4.82;0.90;;;;;;;22.64;46.15;100184.09;5091155;28;20059;-70
2022/10/24 03:20:46;;;;;;;6.07;1.15;;;;;;;22.51;45.86;100194.78;5090739;28;20040;-70
2022/10/24 03:23:13;;;;;;;5.47;1.05;;;;;;;22.13;47.04;100188.50;5093037;28;20039;-70
2022/10/24 03:25:38;;;;;;;12.40;1.88;;;;;;;22.87;45.03;100185.13;5090993;28;20723;-70
2022/10/24 03:28:04;;;;;;;7.18;1.25;;;;;;;22.29;45.89;100190.09;5092557;28;20098;-70
2022/10/24 03:30:29;;;;;;;9.82;1.20;;;;;;;21.61;46.83;100173.38;5092070;28;20031;-70
2022/10/24 03:32:55;;;;;;;6.70;1.00;;;;;;;22.33;45.57;100172.94;5092799;28;20034;-70
2022/10/24 03:35:20;;;;;;;6.10;1.15;;;;;;;22.57;44.60;100180.19;5088661;28;20119;-70
2022/10/24 03:37:45;;;;;;;6.15;1.23;;;;;;;22.62;45.04;100178.06;5079355;28;20523;-70
2022/10/24 03:40:11;;;;;;;8.43;1.23;;;;;;;22.79;43.99;100182.16;5089965;28;20033;-70
2022/10/24 03:42:37;;;;;;;7.25;1.02;;;;;;;23.16;42.88;100187.53;5088599;28;20059;-70
2022/10/24 03:45:02;;;;;;;8.52;1.25;;;;;;;22.32;44.64;100189.84;5085538;28;20432;-71
2022/10/24 03:47:28;;;;;;;5.30;1.00;;;;;;;23.61;42.02;100189.56;5079736;28;20031;-70
2022/10/24 03:49:54;;;;;;;11.60;1.13;;;;;;;22.61;44.05;100194.97;5089944;28;20463;-71
2022/10/24 03:52:20;;;;;;;12.80;1.50;;;;;;;22.83;43.29;100183.66;5090404;28;20475;-72
2022/10/24 03:54:45;;;;;;;10.88;1.17;;;;;;;21.96;45.26;100188.78;5088954;28;20073;-71
2022/10/24 03:57:11;;;;;;;10.45;2.33;;;;;;;23.34;42.82;100182.66;5089090;28;20060;-69
2022/10/24 03:59:36;;;;;;;7.15;1.23;;;;;;;23.04;43.19;100183.94;5090957;28;20069;-69
2022/10/24 04:02:02;;;;;;;4.32;0.95;;;;;;;22.47;44.35;100188.81;5091356;28;20031;-70
2022/10/24 04:04:28;;;;;;;10.85;1.65;;;;;;;23.52;42.71;100181.31;5090861;28;20294;-70
2022/10/24 04:06:54;;;;;;;9.15;1.45;;;;;;;22.75;44.35;100175.34;5091554;28;20103;-70
2022/10/24 04:09:20;;;;;;;8.13;1.17;;;;;;;23.45;43.05;100179.19;5090014;28;20028;-70
2022/10/24 04:11:46;;;;;;;10.13;1.45;;;;;;;22.70;43.75;100179.19;5102512;27;20023;-71
2022/10/24 04:14:11;;;;;;;8.63;1.20;;;;;;;23.16;42.76;100180.41;5107585;28;20451;-70
2022/10/24 04:16:37;;;;;;;8.85;1.08;;;;;;;23.27;43.52;100178.75;5092011;28;20064;-69
2022/10/24 04:19:03;;;;;;;12.48;1.45;;;;;;;22.86;43.75;100172.75;5090993;28;20059;-70
2022/10/24 04:21:28;;;;;;;6.15;1.98;;;;;;;22.15;45.90;100177.72;5090346;28;20024;-71
2022/10/24 04:23:54;;;;;;;8.57;1.10;;;;;;;22.64;44.43;100179.66;5089516;28;20093;-70
2022/10/24 04:26:19;;;;;;;9.43;1.25;;;;;;;22.77;44.34;100174.28;5091963;28;20063;-70
2022/10/24 04:28:45;;;;;;;7.75;1.00;;;;;;;22.99;43.91;100172.75;5089906;28;20032;-72
2022/10/24 04:31:12;;;;;;;8.90;1.60;;;;;;;22.79;43.75;100171.50;5090723;28;20373;-70
2022/10/24 04:33:37;;;;;;;10.20;2.22;;;;;;;22.82;43.77;100177.47;5089381;28;20080;-70
2022/10/24 04:36:03;;;;;;;11.05;1.33;;;;;;;23.52;43.35;100154.63;5090800;28;20422;-70
2022/10/24 04:38:28;;;;;;;9.02;1.33;;;;;;;23.32;43.08;100165.94;5087319;28;20119;-70
2022/10/24 04:40:53;;;;;;;11.13;1.17;;;;;;;22.42;44.81;100169.66;5106401;28;20463;-70
2022/10/24 04:43:20;;;;;;;9.10;1.40;;;;;;;22.64;44.73;100157.47;5107285;28;21482;-70
2022/10/24 04:45:46;;;;;;;9.32;1.27;;;;;;;23.45;42.92;100164.06;5089565;28;20059;-70
2022/10/24 04:48:11;;;;;;;9.95;1.60;;;;;;;23.58;42.63;100157.81;5089652;28;20051;-71
2022/10/24 04:50:39;;;;;;;6.70;1.10;;;;;;;22.83;44.06;100163.22;5089895;28;20446;-71
2022/10/24 04:53:04;;;;;;;9.23;1.10;;;;;;;22.98;43.94;100171.03;5087036;28;20127;-71
2022/10/24 04:55:30;;;;;;;6.47;1.00;;;;;;;22.47;44.67;100164.84;5089641;28;20119;-70
2022/10/24 04:57:55;;;;;;;12.10;1.13;;;;;;;;;;5090183;28;20054;-70
2022/10/24 05:00:20;;;;;;;11.60;1.42;;;;;;;23.08;43.77;100166.75;5088904;28;20055;-71
2022/10/24 05:02:46;;;;;;;10.75;1.13;;;;;;;21.97;45.96;100170.06;5090356;28;20051;-71
2022/10/24 05:05:11;;;;;;;8.10;1.90;;;;;;;22.80;44.15;100155.41;5088301;28;20533;-72
2022/10/24 05:07:37;;;;;;;7.90;1.60;;;;;;;23.03;43.57;100168.91;5093859;28;20565;-71
2022/10/24 05:10:04;;;;;;;8.25;1.23;;;;;;;23.19;43.71;100169.50;5105239;28;20505;-70
2022/10/24 05:12:29;;;;;;;5.65;1.20;;;;;;;22.45;44.61;100174.78;5115302;28;20031;-71
2022/10/24 05:14:54;;;;;;;4.72;1.20;;;;;;;23.61;42.80;100168.25;5101654;28;20036;-71
2022/10/24 05:17:20;;;;;;;5.40;1.05;;;;;;;23.03;43.86;100163.56;5092236;28;20115;-70
2022/10/24 05:19:45;;;;;;;5.80;0.98;;;;;;;22.53;44.63;100161.78;5092879;28;20503;-71
2022/10/24 05:22:11;;;;;;;10.80;0.90;;;;;;;22.59;44.65;100164.97;5095599;28;20034;-71
2022/10/24 05:24:36;;;;;;;7.68;1.25;;;;;;;23.29;43.53;100163.50;5093333;28;20020;-71
2022/10/24 05:27:02;;;;;;;5.15;1.00;;;;;;;22.71;44.70;100180.06;5093751;28;20107;-71
2022/10/24 05:29:27;;;;;;;6.13;0.82;;;;;;;22.97;44.19;100164.00;5093865;28;20054;-71
2022/10/24 05:31:52;;;;;;;6.18;0.90;;;;;;;22.66;44.64;100172.38;5093889;28;20496;-71
2022/10/24 05:34:18;;;;;;;7.57;1.65;;;;;;;22.86;44.18;100167.44;5092985;28;20439;-71
2022/10/24 05:36:43;;;;;;;5.22;1.40;;;;;;;22.26;45.79;100169.00;5093659;28;20089;-71
2022/10/24 05:39:09;;;;;;;6.65;1.15;;;;;;;21.95;45.79;100169.28;5093987;28;20391;-71
2022/10/24 05:41:34;;;;;;;9.95;1.30;;;;;;;22.53;45.33;100166.22;5094307;28;20027;-69
2022/10/24 05:44:00;;;;;;;10.05;1.25;;;;;;;22.42;45.76;100174.13;5092298;28;20062;-71
2022/10/24 05:46:25;;;;;;;9.23;1.42;;;;;;;22.01;46.13;100176.03;5089360;28;20058;-71
2022/10/24 05:48:51;;;;;;;6.05;1.10;;;;;;;22.35;45.49;100173.69;5091731;28;20028;-71
2022/10/24 05:51:16;;;;;;;5.55;1.25;;;;;;;22.74;45.19;100171.84;5093241;28;20056;-71
2022/10/24 05:53:42;;;;;;;12.15;1.30;;;;;;;22.31;45.69;100174.84;5093810;28;20071;-71
2022/10/24 05:56:07;;;;;;;9.45;1.42;;;;;;;22.22;46.12;100183.50;5093073;28;20085;-71
2022/10/24 05:58:33;;;;;;;8.40;1.50;;;;;;;22.65;46.07;100185.81;5092462;28;20044;-71
2022/10/24 06:00:58;;;;;;;5.55;0.90;;;;;;;22.10;46.95;100180.69;5091917;28;20081;-71
2022/10/24 06:03:23;;;;;;;6.28;0.95;;;;;;;21.85;47.32;100176.19;5100542;27;20159;-71
2022/10/24 06:05:49;;;;;;;13.40;1.45;;;;;;;22.97;44.43;100185.31;5088155;28;20115;-71
2022/10/24 06:08:16;;;;;;;8.82;1.10;;;;;;;22.66;44.89;100171.56;5089489;28;20031;-71
2022/10/24 06:10:46;;;;;;;6.68;1.00;;;;;;;22.62;45.32;100175.38;5089034;28;20039;-71
2022/10/24 06:13:12;;;;;;;9.30;1.27;;;;;;;21.88;46.84;100185.78;5095251;28;20028;-71
2022/10/24 06:15:37;;;;;;;8.35;2.05;;;;;;;22.06;46.84;100184.53;5091550;28;20089;-71
2022/10/24 06:18:03;;;;;;;5.22;1.65;;;;;;;21.78;47.16;100189.06;5093800;28;20032;-72
2022/10/24 06:20:28;;;;;;;7.30;1.10;;;;;;;22.37;45.77;100187.78;5092237;28;20024;-72
2022/10/24 06:22:53;;;;;;;12.05;1.35;;;;;;;22.83;44.51;100173.88;5091219;28;20304;-71
2022/10/24 06:25:19;;;;;;;10.68;1.63;;;;;;;22.46;46.12;100202.25;5091742;28;20047;-72
2022/10/24 06:27:44;;;;;;;9.00;1.42;;;;;;;22.09;45.85;100224.25;5109464;27;20066;-71
2022/10/24 06:30:10;;;;;;;9.95;1.35;;;;;;;22.00;46.52;100219.53;5089678;28;20027;-72
2022/10/24 06:32:36;;;;;;;10.30;1.50;;;;;;;21.93;47.10;100220.91;5089918;28;20391;-71
2022/10/24 06:35:01;;;;;;;10.07;1.77;;;;;;;22.32;46.32;100211.16;5092793;28;20135;-71
2022/10/24 06:37:27;;;;;;;9.43;1.42;;;;;;;23.36;44.32;100223.41;5092106;28;20028;-71
2022/10/24 06:39:53;;;;;;;8.73;1.65;;;;;;;22.57;45.32;100233.44;5091639;28;20131;-71
2022/10/24 06:42:18;;;;;;;12.23;2.22;;;;;;;22.65;45.49;100228.44;5091342;28;20027;-72
2022/10/24 06:44:43;;;;;;;9.05;1.45;;;;;;;22.27;45.53;100234.56;5091763;28;20260;-71
2022/10/24 06:47:09;;;;;;;9.68;1.10;;;;;;;21.77;46.98;100248.53;5092746;28;20475;-71
2022/10/24 06:49:34;;;;;;;8.68;2.22;;;;;;;22.19;45.45;100238.63;5089711;28;20055;-71
2022/10/24 06:51:59;;;;;;;4.15;1.15;;;;;;;22.36;46.10;100234.81;5065624;28;20399;-71
2022/10/24 06:54:25;;;;;;;7.25;1.20;;;;;;;23.07;44.70;100261.00;5103063;28;20024;-71
2022/10/24 06:56:50;;;;;;;11.73;1.58;;;;;;;22.94;45.19;100249.50;5091574;28;20036;-71
2022/10/24 06:59:17;;;;;;;3.13;0.90;;;;;;;22.58;45.47;100264.44;5092162;28;20032;-71
2022/10/24 07:01:43;;;;;;;8.98;1.85;;;;;;;23.38;43.53;100258.78;5090722;28;20128;-70
2022/10/24 07:04:09;;;;;;;13.93;1.95;;;;;;;23.06;44.03;100267.28;5090181;28;20020;-71
2022/10/24 07:06:34;;;;;;;7.40;1.17;;;;;;;22.24;45.58;100280.03;5091397;28;20115;-72
2022/10/24 07:09:01;;;;;;;7.43;1.33;;;;;;;21.48;48.00;100272.53;5091063;28;20409;-71
2022/10/24 07:11:27;;;;;;;9.48;1.65;;;;;;;21.48;47.67;100288.47;5092495;28;20027;-71
2022/10/24 07:13:53;;;;;;;9.88;1.40;;;;;;;21.81;47.01;100292.59;5089531;28;20027;-71
2022/10/24 07:16:19;;;;;;;5.68;1.08;;;;;;;22.43;46.23;100285.00;5091811;28;20020;-71
2022/10/24 07:18:46;;;;;;;8.43;1.27;;;;;;;23.16;45.23;100295.03;5090516;28;20032;-71
2022/10/24 07:21:18;;;;;;;7.05;1.33;;;;;;;22.65;45.59;100290.53;5089978;28;20499;-70
2022/10/24 07:23:44;;;;;;;;;;;;;;;23.07;45.23;100308.09;5090837;28;20059;-71
2022/10/24 07:26:11;;;;;;;6.60;1.30;;;;;;;23.28;44.70;100311.09;5089020;28;19962;-71
2022/10/24 07:28:38;;;;;;;9.10;2.15;;;;;;;21.37;48.11;100317.56;5074464;28;20064;-71
2022/10/24 07:31:04;;;;;;;6.20;1.55;;;;;;;22.05;47.59;100341.63;5084939;28;20051;-71
2022/10/24 07:33:30;;;;;;;10.93;1.50;;;;;;;22.44;46.71;100322.16;5079695;28;20028;-71
2022/10/24 07:35:55;;;;;;;7.97;1.27;;;;;;;22.01;47.50;100327.69;5086418;28;20028;-71
2022/10/24 07:38:21;;;;;;;7.35;1.20;;;;;;;22.73;45.89;100335.28;5103177;27;20035;-71
2022/10/24 07:40:47;;;;;;;9.68;1.73;;;;;;;22.30;47.05;100341.69;5106604;28;20081;-71
2022/10/24 07:43:12;;;;;;;15.20;2.15;;;;;;;22.63;46.25;100336.91;5106407;27;20492;-71
2022/10/24 07:45:39;;;;;;;5.32;1.63;;;;;;;22.67;46.72;100354.38;5106880;28;20020;-70
2022/10/24 07:48:05;;;;;;;8.80;1.77;;;;;;;23.32;45.49;100347.22;5107498;28;20024;-71
2022/10/24 07:50:46;;;;;;;8.52;1.27;;;;;;;23.30;45.13;100357.13;5082821;28;20932;-72
2022/10/24 07:53:12;;;;;;;7.65;1.27;;;;;;;22.55;46.07;100333.91;5071235;28;20035;-72
2022/10/24 07:55:39;;;;;;;5.63;1.40;;;;;;;23.67;45.16;100359.81;5086011;28;20122;-72
2022/10/24 07:58:05;;;;;;;9.02;1.73;;;;;;;22.70;47.42;100359.47;5087931;28;20111;-72
2022/10/24 08:00:31;;;;;;;12.38;1.50;;;;;;;23.83;44.82;100360.41;5087533;28;20020;-72
2022/10/24 08:02:57;;;;;;;6.40;1.40;;;;;;;22.25;47.86;100372.25;5078906;28;20066;-72
2022/10/24 08:05:22;;;;;;;7.32;1.42;;;;;;;22.55;48.45;100363.19;5081334;28;20032;-71
2022/10/24 08:07:48;;;;;;;9.25;2.13;;;;;;;22.88;47.85;100368.00;5066713;28;20511;-72
2022/10/24 08:10:13;;;;;;;14.02;2.55;;;;;;;23.30;47.60;100374.00;5070431;28;20020;-71
2022/10/24 08:12:39;;;;;;;6.60;1.50;;;;;;;21.67;52.22;100385.72;5079250;28;20036;-71
2022/10/24 08:15:05;;;;;;;8.50;1.33;;;;;;;22.52;50.63;100388.22;5061317;28;20496;-73
2022/10/24 08:17:30;;;;;;;6.05;1.80;;;;;;;21.33;55.61;100399.28;5065665;28;20064;-72
2022/10/24 08:19:55;;;;;;;7.88;1.73;;;;;;;20.50;59.82;100402.44;5065839;28;20063;-73
2022/10/24 08:22:21;;;;;;;10.88;2.00;;;;;;;22.05;56.10;100395.72;5067709;28;20081;-73
2022/10/24 08:24:46;;;;;;;7.50;1.30;;;;;;;21.83;57.28;100421.03;5066263;28;20575;-73
2022/10/24 08:27:12;;;;;;;6.47;1.42;;;;;;;20.98;58.27;100412.09;5066964;28;20032;-72
2022/10/24 08:29:38;;;;;;;9.38;1.25;;;;;;;19.82;65.26;100422.22;5066313;28;20020;-72
2022/10/24 08:32:05;;;;;;;11.15;1.45;;;;;;;21.46;58.39;100415.34;5064348;28;20400;-72
2022/10/24 08:34:31;;;;;;;9.32;1.23;;;;;;;21.33;61.22;100419.69;5082466;28;20036;-72
2022/10/24 08:36:56;;;;;;;10.30;1.55;;;;;;;21.33;62.54;100419.69;5068071;28;20577;-72
2022/10/24 08:39:23;;;;;;;11.80;1.63;;;;;;;21.08;62.13;100438.97;5066970;28;20404;-73
2022/10/24 08:42:00;;;;;;;5.90;1.60;;;;;;;20.88;65.79;100440.16;5054213;28;20033;-75
2022/10/24 08:44:29;;;;;;;7.38;1.25;;;;;;;21.34;60.42;100427.59;5094146;28;20480;-73
2022/10/24 08:47:16;;;;;;;7.72;1.52;;;;;;;21.84;58.58;100444.03;5070338;28;20500;-73
2022/10/24 08:49:47;;;;;;;8.07;2.45;;;;;;;20.92;61.94;100442.50;5066549;28;20095;-73
2022/10/24 08:52:42;;;;;;;14.05;2.05;;;;;;;20.35;64.70;100448.47;5065177;28;20036;-74
2022/10/24 08:55:20;;;;;;;9.32;1.50;;;;;;;20.75;63.64;100454.16;5047960;28;20068;-74
2022/10/24 08:57:51;;;;;;;11.77;1.90;;;;;;;19.92;67.96;100458.81;5045727;28;20029;-73
2022/10/24 09:00:35;;;;;;;10.25;1.50;;;;;;;21.16;60.47;100456.13;5046307;28;20036;-73
2022/10/24 09:03:27;;;;;;;8.15;1.33;;;;;;;21.66;58.85;100447.84;5053551;28;20032;-74
2022/10/24 09:06:01;;;;;;;11.82;2.00;;;;;;;21.46;58.69;100462.31;5052614;28;20123;-75
2022/10/24 09:08:53;;;;;;;7.78;1.38;;;;;;;21.10;60.76;100467.16;5052243;28;20520;-75
2022/10/24 09:11:42;;;;;;;10.57;1.35;;;;;;;20.83;59.68;100475.78;5061775;28;20060;-77
2022/10/24 09:14:13;;;;;;;6.32;1.65;;;;;;;21.43;59.57;100479.34;5073210;28;20067;-75
2022/10/24 09:16:41;;;;;;;6.28;1.80;;;;;;;21.57;57.93;100475.00;5051332;28;20129;-74
2022/10/24 09:19:13;;;;;;;8.45;1.40;;;;;;;21.82;59.13;100477.84;5051463;28;20405;-74
2022/10/24 09:21:41;;;;;;;10.77;1.77;;;;;;;21.10;58.03;100485.75;5063869;28;20035;-75
2022/10/24 09:24:23;;;;;;;4.43;1.08;;;;;;;21.43;57.97;100484.66;5073030;28;20017;-75
2022/10/24 09:26:48;;;;;;;9.80;1.30;;;;;;;20.86;60.52;100495.16;5061407;28;20065;-74
2022/10/24 09:29:14;;;;;;;6.55;1.45;;;;;;;20.56;62.71;100495.97;5060872;28;20158;-74
2022/10/24 09:31:40;;;;;;;9.02;1.75;;;;;;;21.69;58.15;100506.16;5061924;28;20029;-75
2022/10/24 09:34:05;;;;;;;10.73;1.55;;;;;;;21.96;57.59;100500.91;5066252;28;20456;-74
2022/10/24 09:36:31;;;;;;;9.77;1.73;;;;;;;21.50;60.85;100495.75;5072668;28;20507;-75
2022/10/24 09:39:20;;;;;;;8.32;1.73;;;;;;;21.12;62.09;100507.75;5049002;28;20112;-76
2022/10/24 09:41:45;;;;;;;8.07;1.30;;;;;;;21.78;58.29;100507.41;5049975;28;20029;-74
2022/10/24 09:44:29;;;;;;;9.18;1.33;;;;;;;21.85;56.66;100504.25;5050736;28;20028;-75
2022/10/24 09:46:54;;;;;;;7.50;1.55;;;;;;;21.19;58.95;100514.41;5051945;28;20107;-76
2022/10/24 09:49:22;;;;;;;6.50;2.20;;;;;;;21.65;57.05;100507.28;5051891;28;20588;-75
2022/10/24 09:52:02;;;;;;;7.15;1.40;;;;;;;20.60;60.72;100521.38;5052355;28;20412;-74
2022/10/24 09:54:31;;;;;;;8.02;1.20;;;;;;;21.93;54.97;100518.88;5054336;28;20028;-75
2022/10/24 09:57:02;;;;;;;7.25;1.08;;;;;;;22.20;55.99;100525.13;5072489;28;20025;-75
2022/10/24 09:59:41;;;;;;;7.32;1.50;;;;;;;22.12;54.83;100534.53;5052814;28;20048;-75
2022/10/24 10:02:09;;;;;;;4.97;1.05;;;;;;;21.72;55.26;100543.22;5052188;28;20109;-75
2022/10/24 10:04:35;;;;;;;8.30;1.30;;;;;;;22.07;54.63;100537.47;5054978;28;20044;-75
2022/10/24 10:07:08;;;;;;;11.07;1.73;;;;;;;21.46;54.96;100545.63;5064725;28;20033;-75
2022/10/24 10:09:40;;;;;;;17.52;3.35;;;;;;;21.61;54.97;100541.22;5051895;28;20025;-78
2022/10/24 10:12:20;;;;;;;11.73;1.98;;;;;;;21.25;57.44;100552.19;5051404;28;20025;-75
2022/10/24 10:14:45;;;;;;;10.73;1.70;;;;;;;21.68;55.42;100552.31;5056689;28;20029;-75
2022/10/24 10:17:21;;;;;;;11.32;1.60;;;;;;;21.70;55.88;100550.41;5067082;28;20051;-75
2022/10/24 10:19:47;;;;;;;4.85;1.50;;;;;;;22.15;53.13;100561.81;5051366;28;20036;-75
2022/10/24 10:22:28;;;;;;;7.43;1.33;;;;;;;22.56;53.64;100569.94;5050857;28;20033;-75
2022/10/24 10:24:55;;;;;;;5.30;1.25;;;;;;;21.85;52.17;100570.75;5046177;28;20028;-75
2022/10/24 10:27:34;;;;;;;8.32;1.40;;;;;;;23.39;50.78;100572.47;5049896;28;20029;-73
2022/10/24 10:30:14;;;;;;;10.13;2.15;;;;;;;23.38;49.05;100584.09;5050683;28;20025;-73
2022/10/24 10:33:01;;;;;;;10.73;1.75;;;;;;;22.80;50.77;100583.47;5050423;28;20039;-73
2022/10/24 10:35:41;;;;;;;6.93;1.15;;;;;;;23.48;49.55;100601.19;5058001;28;20145;-73
2022/10/24 10:38:10;;;;;;;6.50;1.20;;;;;;;22.46;50.96;100597.19;5058630;28;20041;-73
2022/10/24 10:40:47;;;;;;;6.63;1.02;;;;;;;22.41;51.41;100598.41;5051283;28;20504;-73
2022/10/24 10:43:24;;;;;;;8.18;1.38;;;;;;;23.59;48.84;100608.47;5047602;28;20029;-72
2022/10/24 10:46:01;;;;;;;11.45;1.40;;;;;;;22.15;52.95;100608.88;5067277;28;20029;-74
2022/10/24 10:49:05;;;;;;;9.55;1.20;;;;;;;22.22;51.72;100620.00;5064451;28;20440;-75
2022/10/24 10:51:40;;;;;;;6.82;1.45;;;;;;;22.61;53.79;100619.28;5049392;28;20045;-72
2022/10/24 10:54:19;;;;;;;6.30;1.48;;;;;;;21.96;55.43;100638.41;5050502;28;20393;-73
2022/10/24 10:56:55;;;;;;;5.43;1.30;;;;;;;23.73;50.77;100631.53;5050609;28;20025;-72
2022/10/24 10:59:59;;;;;;;5.30;1.13;;;;;;;23.10;51.52;100633.06;5060606;28;20028;-73
2022/10/24 11:02:43;;;;;;;6.05;0.90;;;;;;;22.88;53.19;100634.47;5032061;28;20076;-73
2022/10/24 11:05:43;;;;;;;1.75;0.90;;;;;;;21.59;58.74;100638.81;5048717;28;20119;-74
2022/10/24 11:08:30;;;;;;;4.75;1.30;;;;;;;22.40;57.04;100645.47;5058316;28;20032;-72
2022/10/24 11:11:08;;;;;;;4.15;1.23;;;;;;;22.36;57.75;100643.97;5068681;28;20055;-74
2022/10/24 11:13:41;;;;;;;4.93;1.23;;;;;;;21.74;58.03;100650.34;5052370;28;20082;-75
2022/10/24 11:16:15;;;;;;;9.40;2.50;;;;;;;23.17;54.13;100645.91;5045763;28;20125;-74
2022/10/24 11:18:45;;;;;;;6.38;1.48;;;;;;;23.68;51.39;100644.31;5046273;28;20025;-73
2022/10/24 11:21:13;;;;;;;9.70;1.35;;;;;;;22.25;56.14;100643.75;5041798;28;20039;-73
2022/10/24 11:24:05;;;;;;;7.18;1.67;;;;;;;22.85;53.68;100650.66;5041569;28;20381;-73
2022/10/24 11:26:53;;;;;;;6.18;1.48;;;;;;;23.24;52.75;100645.50;5046629;28;20477;-73
2022/10/24 11:29:24;;;;;;;7.63;1.60;;;;;;;22.00;55.68;100648.78;5047476;28;20500;-74
2022/10/24 11:31:58;;;;;;;10.93;1.77;;;;;;;22.62;52.40;100657.47;5045620;28;20072;-73
2022/10/24 11:34:45;;;;;;;7.68;1.35;;;;;;;22.26;55.31;100658.78;5042817;28;20064;-74
2022/10/24 11:37:21;;;;;;;7.32;1.70;;;;;;;23.72;51.29;100661.84;5065771;28;20032;-73